Aérodrome :
LOGIN :

S'inscrire | Disclaimer

   EN    FR    IT 

 










Légende :    VFR   VFR Marginal   IFR   IFR Intensif   IFR Très Intensif
Visi : 
Plafond : 
>= 8 km
>= 3000ft
5 à 8 km
1000 à 3000 ft
1500m à 5 km
500 à 1000 ft
800 à 1500m
200 à 500 ft
< 800m
< 200 ft
Symboles :   Orages  Brouillard  Fortes neiges  Fortes précipitations  Vent > 20 kt
SIGMETs :   Divers  Orages  Givrage  Turbulence  Onde Orograph.  Cendres Volcan.






- Altitude de l'aérodrome : 17 ft
- Code IATA : MPL


LFMT - Montpellier Méditerranée

DERNIER METAR :
  • 161000Z AUTO 02008KT 350V060 CAVOK 14/M03 Q1018 BECMG 19010KT

METARs EXPIRÉS :
  • 160930Z AUTO 02012KT CAVOK 13/M05 Q1018 BECMG 19010KT
  • 160900Z AUTO 02012KT CAVOK 13/M04 Q1018 NOSIG
  • 160830Z AUTO 03012KT CAVOK 12/M05 Q1018 NOSIG
  • 160800Z AUTO 02014KT CAVOK 11/M05 Q1018 NOSIG
  • 160730Z AUTO 02011KT CAVOK 11/M02 Q1018 NOSIG

TAF TAF LFMT
Valide du 16 à 09h jusqu'au 17 à 09h UTC


160800Z 1609/1709 03010KT CAVOK
BECMG 1611/1613 19010KT
TEMPO 1616/1619 VRB05KT SHRA SCT070TCU
BECMG 1619/1622 36010KT
ATIS : +33 4 67 13 11 70



MET'MAP, la Météo Aéronautique d'un coup d'oeil ! - Copyright ORBIFLY Décembre 2007 - Disclaimer

ORBIFLY MET'MAP TEAM :

Programmation & Développement : Alexandra Zaïnal
Sur une idée originale de : Baudouin d'Aumeries
Assistance à la programmation : Marc-Olivier Méhu
Soutien technique & logistique : Manuel Goepfert

Contact : metmap@orbifly.com




SOURCES & CREDITS :

   NOAA